Terminal Aerodrome Forecast
Issued by NWS

Home | Current Version | Previous Version | Graphics & Text | Print | Product List | Glossary Off
Versions: 1 2 3 4 5 6 7 8 9 10 11 12 13 14 15 16 17

000
FTUS43 KICT 240500
TAFHUT
TAF
KHUT 240520Z 2406/2506 17020G32KT P6SM SCT100 SCT250
     FM240900 20018KT P6SM VCTS BKN025CB
     FM241030 33021G30KT 5SM -TSRA BKN025CB
     FM241330 33020G30KT P6SM SCT025 BKN080
     FM242000 33018G26KT P6SM SKC=

USA.gov is the U.S. government's official web portal to all federal, state and local government web resources and services.